sensor_id;sensor_type;location;lat;lon;timestamp;temperature;humidity
11650;DHT22;5881;48.522;7.682;2022-11-15T00:00:51;10.90;99.90
11650;DHT22;5881;48.522;7.682;2022-11-15T00:03:18;10.80;99.90
11650;DHT22;5881;48.522;7.682;2022-11-15T00:05:44;10.80;99.90
11650;DHT22;5881;48.522;7.682;2022-11-15T00:08:11;10.80;99.90
11650;DHT22;5881;48.522;7.682;2022-11-15T00:10:37;10.90;99.90
11650;DHT22;5881;48.522;7.682;2022-11-15T00:13:06;10.90;99.90
11650;DHT22;5881;48.522;7.682;2022-11-15T00:15:35;11.00;99.90
11650;DHT22;5881;48.522;7.682;2022-11-15T00:18:02;10.90;99.90
11650;DHT22;5881;48.522;7.682;2022-11-15T00:20:27;10.90;99.90
11650;DHT22;5881;48.522;7.682;2022-11-15T00:22:53;10.80;99.90
11650;DHT22;5881;48.522;7.682;2022-11-15T00:25:18;10.70;99.90
11650;DHT22;5881;48.522;7.682;2022-11-15T00:27:44;10.70;99.90
11650;DHT22;5881;48.522;7.682;2022-11-15T00:30:11;10.70;99.90
11650;DHT22;5881;48.522;7.682;2022-11-15T00:32:36;10.70;99.90
11650;DHT22;5881;48.522;7.682;2022-11-15T00:35:02;10.70;99.90
11650;DHT22;5881;48.522;7.682;2022-11-15T00:37:28;10.70;99.90
11650;DHT22;5881;48.522;7.682;2022-11-15T00:39:53;10.60;99.90
11650;DHT22;5881;48.522;7.682;2022-11-15T00:42:19;10.50;99.90
11650;DHT22;5881;48.522;7.682;2022-11-15T00:44:45;10.60;99.90
11650;DHT22;5881;48.522;7.682;2022-11-15T00:47:10;10.50;99.90
11650;DHT22;5881;48.522;7.682;2022-11-15T00:49:36;10.50;99.90
11650;DHT22;5881;48.522;7.682;2022-11-15T00:52:01;10.50;99.90
11650;DHT22;5881;48.522;7.682;2022-11-15T00:54:27;10.50;99.90
11650;DHT22;5881;48.522;7.682;2022-11-15T00:56:52;10.40;99.90
11650;DHT22;5881;48.522;7.682;2022-11-15T00:59:18;10.40;99.90
11650;DHT22;5881;48.522;7.682;2022-11-15T01:01:43;10.30;99.90
11650;DHT22;5881;48.522;7.682;2022-11-15T01:04:09;10.30;99.90
11650;DHT22;5881;48.522;7.682;2022-11-15T01:06:35;10.30;99.90
11650;DHT22;5881;48.522;7.682;2022-11-15T01:09:00;10.30;99.90
11650;DHT22;5881;48.522;7.682;2022-11-15T01:11:26;10.20;99.90
11650;DHT22;5881;48.522;7.682;2022-11-15T01:13:51;10.40;99.90
11650;DHT22;5881;48.522;7.682;2022-11-15T01:16:17;10.30;99.90
11650;DHT22;5881;48.522;7.682;2022-11-15T01:18:44;10.30;99.90
11650;DHT22;5881;48.522;7.682;2022-11-15T01:21:14;10.20;99.90
11650;DHT22;5881;48.522;7.682;2022-11-15T01:23:40;10.20;99.90
11650;DHT22;5881;48.522;7.682;2022-11-15T01:26:07;10.40;99.90
11650;DHT22;5881;48.522;7.682;2022-11-15T01:28:35;10.40;99.90
11650;DHT22;5881;48.522;7.682;2022-11-15T01:31:02;10.30;99.90
11650;DHT22;5881;48.522;7.682;2022-11-15T01:33:29;10.30;99.90
11650;DHT22;5881;48.522;7.682;2022-11-15T01:35:55;10.30;99.90
11650;DHT22;5881;48.522;7.682;2022-11-15T01:38:21;10.30;99.90
11650;DHT22;5881;48.522;7.682;2022-11-15T01:40:47;10.40;99.90
11650;DHT22;5881;48.522;7.682;2022-11-15T01:43:20;10.40;99.90
11650;DHT22;5881;48.522;7.682;2022-11-15T01:45:50;10.40;99.90
11650;DHT22;5881;48.522;7.682;2022-11-15T01:48:17;10.40;99.90
11650;DHT22;5881;48.522;7.682;2022-11-15T01:50:42;10.40;99.90
11650;DHT22;5881;48.522;7.682;2022-11-15T01:53:08;10.40;99.90
11650;DHT22;5881;48.522;7.682;2022-11-15T01:55:36;10.40;99.90
11650;DHT22;5881;48.522;7.682;2022-11-15T01:58:04;10.50;99.90
11650;DHT22;5881;48.522;7.682;2022-11-15T02:00:31;10.50;99.90
11650;DHT22;5881;48.522;7.682;2022-11-15T02:02:57;10.50;99.90
11650;DHT22;5881;48.522;7.682;2022-11-15T02:05:23;10.50;99.90
11650;DHT22;5881;48.522;7.682;2022-11-15T02:07:49;10.30;99.90
11650;DHT22;5881;48.522;7.682;2022-11-15T02:10:21;10.60;99.90
11650;DHT22;5881;48.522;7.682;2022-11-15T02:12:47;10.60;99.90
11650;DHT22;5881;48.522;7.682;2022-11-15T02:15:13;10.60;99.90
11650;DHT22;5881;48.522;7.682;2022-11-15T02:18:02;10.60;99.90
11650;DHT22;5881;48.522;7.682;2022-11-15T02:20:47;10.60;99.90
11650;DHT22;5881;48.522;7.682;2022-11-15T02:23:41;10.60;99.90
11650;DHT22;5881;48.522;7.682;2022-11-15T02:26:43;10.50;99.90
11650;DHT22;5881;48.522;7.682;2022-11-15T02:32:06;10.50;99.90
11650;DHT22;5881;48.522;7.682;2022-11-15T02:40:17;10.40;99.90
11650;DHT22;5881;48.522;7.682;2022-11-15T02:42:53;10.40;99.90
11650;DHT22;5881;48.522;7.682;2022-11-15T02:45:50;10.40;99.90
11650;DHT22;5881;48.522;7.682;2022-11-15T02:48:17;10.40;99.90
11650;DHT22;5881;48.522;7.682;2022-11-15T02:50:43;10.40;99.90
11650;DHT22;5881;48.522;7.682;2022-11-15T02:53:10;10.40;99.90
11650;DHT22;5881;48.522;7.682;2022-11-15T02:55:46;10.40;99.90
11650;DHT22;5881;48.522;7.682;2022-11-15T03:06:22;10.40;99.90
11650;DHT22;5881;48.522;7.682;2022-11-15T03:11:59;10.40;99.90
11650;DHT22;5881;48.522;7.682;2022-11-15T03:14:42;10.40;99.90
11650;DHT22;5881;48.522;7.682;2022-11-15T03:19:47;10.40;99.90
11650;DHT22;5881;48.522;7.682;2022-11-15T03:22:19;10.40;99.90
11650;DHT22;5881;48.522;7.682;2022-11-15T03:24:47;10.30;99.90
11650;DHT22;5881;48.522;7.682;2022-11-15T03:27:19;10.30;99.90
11650;DHT22;5881;48.522;7.682;2022-11-15T03:29:50;10.30;99.90
11650;DHT22;5881;48.522;7.682;2022-11-15T03:32:20;10.30;99.90
11650;DHT22;5881;48.522;7.682;2022-11-15T03:34:57;10.30;99.90
11650;DHT22;5881;48.522;7.682;2022-11-15T03:40:11;10.30;99.90
11650;DHT22;5881;48.522;7.682;2022-11-15T03:42:44;10.20;99.90
11650;DHT22;5881;48.522;7.682;2022-11-15T03:45:19;10.20;99.90
11650;DHT22;5881;48.522;7.682;2022-11-15T03:47:51;10.20;99.90
11650;DHT22;5881;48.522;7.682;2022-11-15T03:50:20;10.30;99.90
11650;DHT22;5881;48.522;7.682;2022-11-15T03:52:48;10.30;99.90
11650;DHT22;5881;48.522;7.682;2022-11-15T03:55:17;10.30;99.90
11650;DHT22;5881;48.522;7.682;2022-11-15T03:57:44;10.30;99.90
11650;DHT22;5881;48.522;7.682;2022-11-15T04:00:11;10.20;99.90
11650;DHT22;5881;48.522;7.682;2022-11-15T04:02:36;10.10;99.90
11650;DHT22;5881;48.522;7.682;2022-11-15T04:05:03;10.10;99.90
11650;DHT22;5881;48.522;7.682;2022-11-15T04:07:28;10.00;99.90
11650;DHT22;5881;48.522;7.682;2022-11-15T04:09:54;9.90;99.90
11650;DHT22;5881;48.522;7.682;2022-11-15T04:12:33;9.90;99.90
11650;DHT22;5881;48.522;7.682;2022-11-15T04:15:06;9.90;99.90
11650;DHT22;5881;48.522;7.682;2022-11-15T04:22:56;9.90;99.90
11650;DHT22;5881;48.522;7.682;2022-11-15T04:25:41;10.00;99.90
11650;DHT22;5881;48.522;7.682;2022-11-15T04:28:07;10.00;99.90
11650;DHT22;5881;48.522;7.682;2022-11-15T04:30:33;10.00;99.90
11650;DHT22;5881;48.522;7.682;2022-11-15T04:32:59;10.00;99.90
11650;DHT22;5881;48.522;7.682;2022-11-15T04:35:24;10.00;99.90
11650;DHT22;5881;48.522;7.682;2022-11-15T04:37:50;10.00;99.90
11650;DHT22;5881;48.522;7.682;2022-11-15T04:40:16;10.00;99.90
11650;DHT22;5881;48.522;7.682;2022-11-15T04:42:42;10.00;99.90
11650;DHT22;5881;48.522;7.682;2022-11-15T04:45:08;9.90;99.90
11650;DHT22;5881;48.522;7.682;2022-11-15T04:47:34;9.90;99.90
11650;DHT22;5881;48.522;7.682;2022-11-15T04:50:00;9.80;99.90
11650;DHT22;5881;48.522;7.682;2022-11-15T04:52:25;9.80;99.90
11650;DHT22;5881;48.522;7.682;2022-11-15T04:54:51;9.80;99.90
11650;DHT22;5881;48.522;7.682;2022-11-15T04:57:17;9.90;99.90
11650;DHT22;5881;48.522;7.682;2022-11-15T04:59:43;10.00;99.90
11650;DHT22;5881;48.522;7.682;2022-11-15T05:02:08;10.00;99.90
11650;DHT22;5881;48.522;7.682;2022-11-15T05:04:34;10.10;99.90
11650;DHT22;5881;48.522;7.682;2022-11-15T05:06:59;10.20;99.90
11650;DHT22;5881;48.522;7.682;2022-11-15T05:09:25;10.30;99.90
11650;DHT22;5881;48.522;7.682;2022-11-15T05:11:51;10.30;99.90
11650;DHT22;5881;48.522;7.682;2022-11-15T05:14:17;10.50;99.90
11650;DHT22;5881;48.522;7.682;2022-11-15T05:16:42;10.50;99.90
11650;DHT22;5881;48.522;7.682;2022-11-15T05:19:08;10.40;99.90
11650;DHT22;5881;48.522;7.682;2022-11-15T05:21:34;10.50;99.90
11650;DHT22;5881;48.522;7.682;2022-11-15T05:24:01;10.50;99.90
11650;DHT22;5881;48.522;7.682;2022-11-15T05:26:26;10.50;99.90
11650;DHT22;5881;48.522;7.682;2022-11-15T05:28:56;10.50;99.90
11650;DHT22;5881;48.522;7.682;2022-11-15T05:31:23;10.50;99.90
11650;DHT22;5881;48.522;7.682;2022-11-15T05:33:49;10.50;99.90
11650;DHT22;5881;48.522;7.682;2022-11-15T05:38:54;10.50;99.90
11650;DHT22;5881;48.522;7.682;2022-11-15T05:41:25;10.50;99.90
11650;DHT22;5881;48.522;7.682;2022-11-15T05:43:51;10.50;99.90
11650;DHT22;5881;48.522;7.682;2022-11-15T05:46:18;10.50;99.90
11650;DHT22;5881;48.522;7.682;2022-11-15T05:48:48;10.40;99.90
11650;DHT22;5881;48.522;7.682;2022-11-15T05:51:16;10.40;99.90
11650;DHT22;5881;48.522;7.682;2022-11-15T05:53:43;10.40;99.90
11650;DHT22;5881;48.522;7.682;2022-11-15T05:56:09;10.40;99.90
11650;DHT22;5881;48.522;7.682;2022-11-15T05:58:36;10.30;99.90
11650;DHT22;5881;48.522;7.682;2022-11-15T06:01:02;10.30;99.90
11650;DHT22;5881;48.522;7.682;2022-11-15T06:03:28;10.30;99.90
11650;DHT22;5881;48.522;7.682;2022-11-15T06:05:53;10.30;99.90
11650;DHT22;5881;48.522;7.682;2022-11-15T06:08:19;10.30;99.90
11650;DHT22;5881;48.522;7.682;2022-11-15T06:10:45;10.20;99.90
11650;DHT22;5881;48.522;7.682;2022-11-15T06:13:10;10.20;99.90
11650;DHT22;5881;48.522;7.682;2022-11-15T06:15:36;10.20;99.90
11650;DHT22;5881;48.522;7.682;2022-11-15T06:18:02;10.20;99.90
11650;DHT22;5881;48.522;7.682;2022-11-15T06:20:28;10.20;99.90
11650;DHT22;5881;48.522;7.682;2022-11-15T06:23:02;10.20;99.90
11650;DHT22;5881;48.522;7.682;2022-11-15T06:25:28;10.20;99.90
11650;DHT22;5881;48.522;7.682;2022-11-15T06:27:56;10.20;99.90
11650;DHT22;5881;48.522;7.682;2022-11-15T06:30:22;10.30;99.90
11650;DHT22;5881;48.522;7.682;2022-11-15T06:32:48;10.20;99.90
11650;DHT22;5881;48.522;7.682;2022-11-15T06:35:14;10.10;99.90
11650;DHT22;5881;48.522;7.682;2022-11-15T06:37:40;10.20;99.90
11650;DHT22;5881;48.522;7.682;2022-11-15T06:40:07;10.10;99.90
11650;DHT22;5881;48.522;7.682;2022-11-15T06:42:33;10.10;99.90
11650;DHT22;5881;48.522;7.682;2022-11-15T06:44:58;10.10;99.90
11650;DHT22;5881;48.522;7.682;2022-11-15T06:47:24;10.10;99.90
11650;DHT22;5881;48.522;7.682;2022-11-15T06:49:49;10.00;99.90
11650;DHT22;5881;48.522;7.682;2022-11-15T06:52:15;10.10;99.90
11650;DHT22;5881;48.522;7.682;2022-11-15T06:54:43;10.10;99.90
11650;DHT22;5881;48.522;7.682;2022-11-15T06:57:09;10.00;99.90
11650;DHT22;5881;48.522;7.682;2022-11-15T06:59:34;10.10;99.90
11650;DHT22;5881;48.522;7.682;2022-11-15T07:02:00;10.10;99.90
11650;DHT22;5881;48.522;7.682;2022-11-15T07:04:26;10.10;99.90
11650;DHT22;5881;48.522;7.682;2022-11-15T07:06:51;10.10;99.90
11650;DHT22;5881;48.522;7.682;2022-11-15T07:09:17;10.10;99.90
11650;DHT22;5881;48.522;7.682;2022-11-15T07:11:42;10.10;99.90
11650;DHT22;5881;48.522;7.682;2022-11-15T07:14:08;10.10;99.90
11650;DHT22;5881;48.522;7.682;2022-11-15T07:16:34;10.10;99.90
11650;DHT22;5881;48.522;7.682;2022-11-15T07:18:59;10.20;99.90
11650;DHT22;5881;48.522;7.682;2022-11-15T07:21:25;10.20;99.90
11650;DHT22;5881;48.522;7.682;2022-11-15T07:23:51;10.20;99.90
11650;DHT22;5881;48.522;7.682;2022-11-15T07:26:16;10.20;99.90
11650;DHT22;5881;48.522;7.682;2022-11-15T07:28:42;10.30;99.90
11650;DHT22;5881;48.522;7.682;2022-11-15T07:31:08;10.20;99.90
11650;DHT22;5881;48.522;7.682;2022-11-15T07:33:35;10.30;99.90
11650;DHT22;5881;48.522;7.682;2022-11-15T07:36:05;10.30;99.90
11650;DHT22;5881;48.522;7.682;2022-11-15T07:38:32;10.30;99.90
11650;DHT22;5881;48.522;7.682;2022-11-15T07:41:00;10.40;99.90
11650;DHT22;5881;48.522;7.682;2022-11-15T07:43:26;10.40;99.90
11650;DHT22;5881;48.522;7.682;2022-11-15T07:45:55;10.40;99.90
11650;DHT22;5881;48.522;7.682;2022-11-15T07:48:22;10.50;99.90
11650;DHT22;5881;48.522;7.682;2022-11-15T07:50:47;10.50;99.90
11650;DHT22;5881;48.522;7.682;2022-11-15T07:53:13;10.70;99.90
11650;DHT22;5881;48.522;7.682;2022-11-15T07:55:40;10.50;99.90
11650;DHT22;5881;48.522;7.682;2022-11-15T07:58:10;10.60;99.90
11650;DHT22;5881;48.522;7.682;2022-11-15T08:00:37;10.60;99.90
11650;DHT22;5881;48.522;7.682;2022-11-15T08:05:28;10.70;99.90
11650;DHT22;5881;48.522;7.682;2022-11-15T08:07:55;10.60;99.90
11650;DHT22;5881;48.522;7.682;2022-11-15T08:10:25;10.60;99.90
11650;DHT22;5881;48.522;7.682;2022-11-15T08:13:01;10.70;99.90
11650;DHT22;5881;48.522;7.682;2022-11-15T08:15:27;10.80;99.90
11650;DHT22;5881;48.522;7.682;2022-11-15T08:17:58;10.80;99.90
11650;DHT22;5881;48.522;7.682;2022-11-15T08:20:24;10.80;99.90
11650;DHT22;5881;48.522;7.682;2022-11-15T08:22:50;10.90;99.90
11650;DHT22;5881;48.522;7.682;2022-11-15T08:25:16;11.00;99.90
11650;DHT22;5881;48.522;7.682;2022-11-15T08:27:42;11.10;99.90
11650;DHT22;5881;48.522;7.682;2022-11-15T08:30:08;11.10;99.90
11650;DHT22;5881;48.522;7.682;2022-11-15T08:32:34;11.10;99.90
11650;DHT22;5881;48.522;7.682;2022-11-15T08:34:59;11.20;99.90
11650;DHT22;5881;48.522;7.682;2022-11-15T08:37:25;11.30;99.90
11650;DHT22;5881;48.522;7.682;2022-11-15T08:39:51;11.30;99.90
11650;DHT22;5881;48.522;7.682;2022-11-15T08:42:16;11.40;99.90
11650;DHT22;5881;48.522;7.682;2022-11-15T08:44:42;11.20;99.90
11650;DHT22;5881;48.522;7.682;2022-11-15T08:47:11;11.30;99.90
11650;DHT22;5881;48.522;7.682;2022-11-15T08:49:37;11.20;99.90
11650;DHT22;5881;48.522;7.682;2022-11-15T08:52:03;11.20;99.90
11650;DHT22;5881;48.522;7.682;2022-11-15T08:54:28;11.20;99.90
11650;DHT22;5881;48.522;7.682;2022-11-15T08:56:54;11.10;99.90
11650;DHT22;5881;48.522;7.682;2022-11-15T08:59:20;11.10;99.90
11650;DHT22;5881;48.522;7.682;2022-11-15T09:01:45;11.10;99.90
11650;DHT22;5881;48.522;7.682;2022-11-15T09:04:11;11.10;99.90
11650;DHT22;5881;48.522;7.682;2022-11-15T09:06:36;11.10;99.90
11650;DHT22;5881;48.522;7.682;2022-11-15T09:09:02;11.10;99.90
11650;DHT22;5881;48.522;7.682;2022-11-15T09:11:28;11.10;99.90
11650;DHT22;5881;48.522;7.682;2022-11-15T09:13:53;11.10;99.90
11650;DHT22;5881;48.522;7.682;2022-11-15T09:16:19;11.10;99.90
11650;DHT22;5881;48.522;7.682;2022-11-15T09:18:45;11.10;99.90
11650;DHT22;5881;48.522;7.682;2022-11-15T09:21:10;11.10;99.90
11650;DHT22;5881;48.522;7.682;2022-11-15T09:23:36;11.20;99.90
11650;DHT22;5881;48.522;7.682;2022-11-15T09:26:03;11.20;99.90
11650;DHT22;5881;48.522;7.682;2022-11-15T09:28:30;11.20;99.90
11650;DHT22;5881;48.522;7.682;2022-11-15T09:31:01;11.20;99.90
11650;DHT22;5881;48.522;7.682;2022-11-15T09:33:28;11.20;99.90
11650;DHT22;5881;48.522;7.682;2022-11-15T09:35:54;11.20;99.90
11650;DHT22;5881;48.522;7.682;2022-11-15T09:38:19;11.20;99.90
11650;DHT22;5881;48.522;7.682;2022-11-15T09:40:49;11.20;99.90
11650;DHT22;5881;48.522;7.682;2022-11-15T09:46:42;11.10;99.90
11650;DHT22;5881;48.522;7.682;2022-11-15T09:49:13;11.10;99.90
11650;DHT22;5881;48.522;7.682;2022-11-15T09:51:41;11.10;99.90
11650;DHT22;5881;48.522;7.682;2022-11-15T09:56:53;11.10;99.90
11650;DHT22;5881;48.522;7.682;2022-11-15T09:59:29;11.10;99.90
11650;DHT22;5881;48.522;7.682;2022-11-15T10:04:43;11.20;99.90
11650;DHT22;5881;48.522;7.682;2022-11-15T10:07:41;11.20;99.90
11650;DHT22;5881;48.522;7.682;2022-11-15T10:10:30;11.30;99.90
11650;DHT22;5881;48.522;7.682;2022-11-15T10:12:57;11.30;99.90
11650;DHT22;5881;48.522;7.682;2022-11-15T10:15:24;11.40;99.90
11650;DHT22;5881;48.522;7.682;2022-11-15T10:20:40;11.40;99.90
11650;DHT22;5881;48.522;7.682;2022-11-15T10:23:13;11.50;99.90
11650;DHT22;5881;48.522;7.682;2022-11-15T10:25:39;11.60;99.90
11650;DHT22;5881;48.522;7.682;2022-11-15T10:28:26;11.70;99.90
11650;DHT22;5881;48.522;7.682;2022-11-15T10:30:54;11.80;99.90
11650;DHT22;5881;48.522;7.682;2022-11-15T10:33:31;11.90;99.90
11650;DHT22;5881;48.522;7.682;2022-11-15T10:38:54;12.00;99.90
11650;DHT22;5881;48.522;7.682;2022-11-15T10:46:36;12.10;99.90
11650;DHT22;5881;48.522;7.682;2022-11-15T10:49:13;12.20;99.90
11650;DHT22;5881;48.522;7.682;2022-11-15T10:51:48;12.30;99.90
11650;DHT22;5881;48.522;7.682;2022-11-15T10:54:25;12.30;99.90
11650;DHT22;5881;48.522;7.682;2022-11-15T10:56:55;12.30;99.90
11650;DHT22;5881;48.522;7.682;2022-11-15T10:59:27;12.30;99.90
11650;DHT22;5881;48.522;7.682;2022-11-15T11:01:53;12.30;99.90
11650;DHT22;5881;48.522;7.682;2022-11-15T11:04:19;12.40;99.90
11650;DHT22;5881;48.522;7.682;2022-11-15T11:06:59;12.30;99.90
11650;DHT22;5881;48.522;7.682;2022-11-15T11:09:32;12.30;99.90
11650;DHT22;5881;48.522;7.682;2022-11-15T11:11:58;12.40;99.90
11650;DHT22;5881;48.522;7.682;2022-11-15T11:14:30;12.40;99.90
11650;DHT22;5881;48.522;7.682;2022-11-15T11:17:27;12.40;99.90
11650;DHT22;5881;48.522;7.682;2022-11-15T11:34:16;12.50;99.90
11650;DHT22;5881;48.522;7.682;2022-11-15T11:37:10;12.60;99.90
11650;DHT22;5881;48.522;7.682;2022-11-15T11:45:43;13.00;99.90
11650;DHT22;5881;48.522;7.682;2022-11-15T11:50:28;13.00;99.90
11650;DHT22;5881;48.522;7.682;2022-11-15T11:55:41;12.90;99.90
11650;DHT22;5881;48.522;7.682;2022-11-15T11:58:36;12.90;99.90
11650;DHT22;5881;48.522;7.682;2022-11-15T12:01:29;12.90;99.90
11650;DHT22;5881;48.522;7.682;2022-11-15T12:03:57;12.90;99.90
11650;DHT22;5881;48.522;7.682;2022-11-15T12:14:50;13.30;99.90
11650;DHT22;5881;48.522;7.682;2022-11-15T12:17:21;13.30;99.90
11650;DHT22;5881;48.522;7.682;2022-11-15T12:19:48;13.40;99.90
11650;DHT22;5881;48.522;7.682;2022-11-15T12:22:46;13.50;99.90
11650;DHT22;5881;48.522;7.682;2022-11-15T12:28:13;13.50;99.90
11650;DHT22;5881;48.522;7.682;2022-11-15T12:30:45;13.50;99.90
11650;DHT22;5881;48.522;7.682;2022-11-15T12:33:36;13.50;99.90
11650;DHT22;5881;48.522;7.682;2022-11-15T12:39:00;13.40;99.90
11650;DHT22;5881;48.522;7.682;2022-11-15T12:41:31;13.40;99.90
11650;DHT22;5881;48.522;7.682;2022-11-15T12:43:58;13.40;99.90
11650;DHT22;5881;48.522;7.682;2022-11-15T12:49:07;13.40;99.90
11650;DHT22;5881;48.522;7.682;2022-11-15T12:59:57;13.30;99.90
11650;DHT22;5881;48.522;7.682;2022-11-15T13:02:26;13.30;99.90
11650;DHT22;5881;48.522;7.682;2022-11-15T13:04:54;13.30;99.90
11650;DHT22;5881;48.522;7.682;2022-11-15T13:12:58;13.40;99.90
11650;DHT22;5881;48.522;7.682;2022-11-15T13:15:43;13.30;99.90
11650;DHT22;5881;48.522;7.682;2022-11-15T13:18:34;13.30;99.90
11650;DHT22;5881;48.522;7.682;2022-11-15T13:21:01;13.20;99.90
11650;DHT22;5881;48.522;7.682;2022-11-15T13:23:27;13.20;99.90
11650;DHT22;5881;48.522;7.682;2022-11-15T13:26:14;13.10;99.90
11650;DHT22;5881;48.522;7.682;2022-11-15T13:28:45;13.10;99.90
11650;DHT22;5881;48.522;7.682;2022-11-15T13:31:36;13.10;99.90
11650;DHT22;5881;48.522;7.682;2022-11-15T13:36:49;13.00;99.90
11650;DHT22;5881;48.522;7.682;2022-11-15T13:39:27;13.00;99.90
11650;DHT22;5881;48.522;7.682;2022-11-15T13:41:53;12.90;99.90
11650;DHT22;5881;48.522;7.682;2022-11-15T13:44:20;12.90;99.90
11650;DHT22;5881;48.522;7.682;2022-11-15T13:46:46;12.90;99.90
11650;DHT22;5881;48.522;7.682;2022-11-15T13:49:12;12.90;99.90
11650;DHT22;5881;48.522;7.682;2022-11-15T13:51:49;12.90;99.90
11650;DHT22;5881;48.522;7.682;2022-11-15T13:54:41;12.80;99.90
11650;DHT22;5881;48.522;7.682;2022-11-15T13:57:24;12.80;99.90
11650;DHT22;5881;48.522;7.682;2022-11-15T14:00:22;12.70;99.90
11650;DHT22;5881;48.522;7.682;2022-11-15T14:02:49;12.70;99.90
11650;DHT22;5881;48.522;7.682;2022-11-15T14:05:21;12.70;99.90
11650;DHT22;5881;48.522;7.682;2022-11-15T14:08:12;12.70;99.90
11650;DHT22;5881;48.522;7.682;2022-11-15T14:10:47;12.70;99.90
11650;DHT22;5881;48.522;7.682;2022-11-15T14:13:29;12.70;99.90
11650;DHT22;5881;48.522;7.682;2022-11-15T14:16:12;12.80;99.90
11650;DHT22;5881;48.522;7.682;2022-11-15T14:18:46;12.80;99.90
11650;DHT22;5881;48.522;7.682;2022-11-15T14:21:12;12.80;99.90
11650;DHT22;5881;48.522;7.682;2022-11-15T14:23:38;12.80;99.90
11650;DHT22;5881;48.522;7.682;2022-11-15T14:26:04;12.80;99.90
11650;DHT22;5881;48.522;7.682;2022-11-15T14:28:33;12.80;99.90
11650;DHT22;5881;48.522;7.682;2022-11-15T14:31:10;12.80;99.90
11650;DHT22;5881;48.522;7.682;2022-11-15T14:33:37;12.80;99.90
11650;DHT22;5881;48.522;7.682;2022-11-15T14:36:11;12.90;99.90
11650;DHT22;5881;48.522;7.682;2022-11-15T14:38:38;12.80;99.90
11650;DHT22;5881;48.522;7.682;2022-11-15T14:41:03;12.80;99.90
11650;DHT22;5881;48.522;7.682;2022-11-15T14:43:29;12.70;99.90
11650;DHT22;5881;48.522;7.682;2022-11-15T14:45:55;12.70;99.90
11650;DHT22;5881;48.522;7.682;2022-11-15T14:48:20;12.70;99.90
11650;DHT22;5881;48.522;7.682;2022-11-15T14:50:49;12.70;99.90
11650;DHT22;5881;48.522;7.682;2022-11-15T14:53:16;12.60;99.90
11650;DHT22;5881;48.522;7.682;2022-11-15T14:55:42;12.60;99.90
11650;DHT22;5881;48.522;7.682;2022-11-15T14:58:08;12.60;99.90
11650;DHT22;5881;48.522;7.682;2022-11-15T15:00:35;12.60;99.90
11650;DHT22;5881;48.522;7.682;2022-11-15T15:03:02;12.50;99.90
11650;DHT22;5881;48.522;7.682;2022-11-15T15:05:36;12.50;99.90
11650;DHT22;5881;48.522;7.682;2022-11-15T15:08:03;12.50;99.90
11650;DHT22;5881;48.522;7.682;2022-11-15T15:10:33;12.50;99.90
11650;DHT22;5881;48.522;7.682;2022-11-15T15:12:59;12.50;99.90
11650;DHT22;5881;48.522;7.682;2022-11-15T15:15:27;12.50;99.90
11650;DHT22;5881;48.522;7.682;2022-11-15T15:17:55;12.40;99.90
11650;DHT22;5881;48.522;7.682;2022-11-15T15:20:20;12.40;99.90
11650;DHT22;5881;48.522;7.682;2022-11-15T15:22:46;12.40;99.90
11650;DHT22;5881;48.522;7.682;2022-11-15T15:25:31;12.30;99.90
11650;DHT22;5881;48.522;7.682;2022-11-15T15:27:58;12.20;99.90
11650;DHT22;5881;48.522;7.682;2022-11-15T15:30:26;12.20;99.90
11650;DHT22;5881;48.522;7.682;2022-11-15T15:32:52;12.10;99.90
11650;DHT22;5881;48.522;7.682;2022-11-15T15:35:18;12.10;99.90
11650;DHT22;5881;48.522;7.682;2022-11-15T15:37:45;12.10;99.90
11650;DHT22;5881;48.522;7.682;2022-11-15T15:40:17;12.00;99.90
11650;DHT22;5881;48.522;7.682;2022-11-15T15:42:43;11.90;99.90
11650;DHT22;5881;48.522;7.682;2022-11-15T15:45:09;11.90;99.90
11650;DHT22;5881;48.522;7.682;2022-11-15T15:47:35;12.00;99.90
11650;DHT22;5881;48.522;7.682;2022-11-15T15:50:01;12.00;99.90
11650;DHT22;5881;48.522;7.682;2022-11-15T15:52:27;12.00;99.90
11650;DHT22;5881;48.522;7.682;2022-11-15T15:54:53;12.00;99.90
11650;DHT22;5881;48.522;7.682;2022-11-15T15:57:18;12.00;99.90
11650;DHT22;5881;48.522;7.682;2022-11-15T15:59:44;12.10;99.90
11650;DHT22;5881;48.522;7.682;2022-11-15T16:02:12;12.10;99.90
11650;DHT22;5881;48.522;7.682;2022-11-15T16:04:39;12.10;99.90
11650;DHT22;5881;48.522;7.682;2022-11-15T16:07:04;12.00;99.90
11650;DHT22;5881;48.522;7.682;2022-11-15T16:09:30;12.00;99.90
11650;DHT22;5881;48.522;7.682;2022-11-15T16:12:14;12.00;99.90
11650;DHT22;5881;48.522;7.682;2022-11-15T16:14:42;12.00;99.90
11650;DHT22;5881;48.522;7.682;2022-11-15T16:17:19;12.00;99.90
11650;DHT22;5881;48.522;7.682;2022-11-15T16:19:45;12.00;99.90
11650;DHT22;5881;48.522;7.682;2022-11-15T16:22:11;12.10;99.90
11650;DHT22;5881;48.522;7.682;2022-11-15T16:24:36;12.00;99.90
11650;DHT22;5881;48.522;7.682;2022-11-15T16:27:02;12.00;99.90
11650;DHT22;5881;48.522;7.682;2022-11-15T16:29:28;12.00;99.90
11650;DHT22;5881;48.522;7.682;2022-11-15T16:31:53;12.00;99.90
11650;DHT22;5881;48.522;7.682;2022-11-15T16:34:19;12.10;99.90
11650;DHT22;5881;48.522;7.682;2022-11-15T16:36:45;12.10;99.90
11650;DHT22;5881;48.522;7.682;2022-11-15T16:39:11;12.10;99.90
11650;DHT22;5881;48.522;7.682;2022-11-15T16:41:42;12.10;99.90
11650;DHT22;5881;48.522;7.682;2022-11-15T16:44:14;12.10;99.90
11650;DHT22;5881;48.522;7.682;2022-11-15T16:46:43;12.10;99.90
11650;DHT22;5881;48.522;7.682;2022-11-15T16:49:14;12.10;99.90
11650;DHT22;5881;48.522;7.682;2022-11-15T16:51:49;12.10;99.90
11650;DHT22;5881;48.522;7.682;2022-11-15T16:54:15;12.10;99.90
11650;DHT22;5881;48.522;7.682;2022-11-15T16:56:41;12.10;99.90
11650;DHT22;5881;48.522;7.682;2022-11-15T16:59:13;12.10;99.90
11650;DHT22;5881;48.522;7.682;2022-11-15T17:01:39;12.10;99.90
11650;DHT22;5881;48.522;7.682;2022-11-15T17:04:11;12.10;99.90
11650;DHT22;5881;48.522;7.682;2022-11-15T17:06:38;12.10;99.90
11650;DHT22;5881;48.522;7.682;2022-11-15T17:09:05;12.00;99.90
11650;DHT22;5881;48.522;7.682;2022-11-15T17:11:31;11.90;99.90
11650;DHT22;5881;48.522;7.682;2022-11-15T17:13:57;12.00;99.90
11650;DHT22;5881;48.522;7.682;2022-11-15T17:16:24;11.90;99.90
11650;DHT22;5881;48.522;7.682;2022-11-15T17:18:50;11.80;99.90
11650;DHT22;5881;48.522;7.682;2022-11-15T17:21:18;11.80;99.90
11650;DHT22;5881;48.522;7.682;2022-11-15T17:23:44;11.70;99.90
11650;DHT22;5881;48.522;7.682;2022-11-15T17:26:11;11.60;99.90
11650;DHT22;5881;48.522;7.682;2022-11-15T17:28:37;11.60;99.90
11650;DHT22;5881;48.522;7.682;2022-11-15T17:31:11;11.60;99.90
11650;DHT22;5881;48.522;7.682;2022-11-15T17:33:37;11.50;99.90
11650;DHT22;5881;48.522;7.682;2022-11-15T17:36:05;11.50;99.90
11650;DHT22;5881;48.522;7.682;2022-11-15T17:38:32;11.50;99.90
11650;DHT22;5881;48.522;7.682;2022-11-15T17:41:05;11.60;99.90
11650;DHT22;5881;48.522;7.682;2022-11-15T17:43:36;11.60;99.90
11650;DHT22;5881;48.522;7.682;2022-11-15T17:46:11;11.60;99.90
11650;DHT22;5881;48.522;7.682;2022-11-15T17:48:37;11.50;99.90
11650;DHT22;5881;48.522;7.682;2022-11-15T17:51:05;11.50;99.90
11650;DHT22;5881;48.522;7.682;2022-11-15T17:53:39;11.50;99.90